createdAt,value
2022-10-11T04:01:31.276Z,7.50
2022-10-11T04:04:03.061Z,7.50
2022-10-11T04:06:34.717Z,7.50
2022-10-11T04:09:06.348Z,7.50
2022-10-11T04:11:37.994Z,7.50
2022-10-11T04:14:09.727Z,7.50
2022-10-11T04:16:42.735Z,7.50
2022-10-11T04:19:14.371Z,7.40
2022-10-11T04:21:46.016Z,7.40
2022-10-11T04:24:17.649Z,7.40
2022-10-11T04:26:49.305Z,7.40
2022-10-11T04:29:20.962Z,7.40
2022-10-11T04:31:54.011Z,7.40
2022-10-11T04:34:25.769Z,7.40
2022-10-11T04:36:57.460Z,7.40
2022-10-11T04:39:29.090Z,7.40
2022-10-11T04:42:00.749Z,7.40
2022-10-11T04:44:32.398Z,7.50
2022-10-11T04:47:05.416Z,7.50
2022-10-11T04:49:37.070Z,7.50
2022-10-11T04:52:08.754Z,7.50
2022-10-11T04:54:40.390Z,7.50
2022-10-11T04:57:12.034Z,7.50
2022-10-11T04:59:47.877Z,7.50
2022-10-11T05:02:22.979Z,7.50
2022-10-11T05:04:54.664Z,7.60
2022-10-11T05:07:26.300Z,7.70
2022-10-11T05:09:57.990Z,7.80
2022-10-11T05:12:29.630Z,7.80
2022-10-11T05:15:01.341Z,7.90
2022-10-11T05:17:34.329Z,8.00
2022-10-11T05:20:07.165Z,8.10
2022-10-11T05:22:38.796Z,8.20
2022-10-11T05:25:10.448Z,8.30
2022-10-11T05:27:42.082Z,8.30
2022-10-11T05:30:13.813Z,8.40
2022-10-11T05:32:46.861Z,8.40
2022-10-11T05:35:18.544Z,8.50
2022-10-11T05:37:50.177Z,8.60
2022-10-11T05:40:21.877Z,8.60
2022-10-11T05:42:53.504Z,8.60
2022-10-11T05:45:26.352Z,8.70
2022-10-11T05:47:59.492Z,8.70
2022-10-11T05:50:31.139Z,8.70
2022-10-11T05:53:02.923Z,8.70
2022-10-11T05:55:36.405Z,8.70
2022-10-11T05:58:14.746Z,8.70
2022-10-11T06:00:46.455Z,9.80
2022-10-11T06:03:19.474Z,8.70
2022-10-11T06:05:56.550Z,8.70
2022-10-11T06:08:28.804Z,8.70
2022-10-11T06:11:12.064Z,8.90
2022-10-11T06:13:43.860Z,8.80
2022-10-11T06:16:15.647Z,8.80
2022-10-11T06:18:48.716Z,8.90
2022-10-11T06:21:20.394Z,8.90
2022-10-11T06:23:55.612Z,8.90
2022-10-11T06:26:30.165Z,8.90
2022-10-11T06:29:01.924Z,9.00
2022-10-11T06:31:33.617Z,9.00
2022-10-11T06:34:06.624Z,9.10
2022-10-11T06:36:38.304Z,9.10
2022-10-11T06:39:09.980Z,9.10
2022-10-11T06:41:41.824Z,9.10
2022-10-11T06:44:14.439Z,9.20
2022-10-11T06:46:46.260Z,9.20
2022-10-11T06:49:23.282Z,9.40
2022-10-11T06:51:55.456Z,9.40
2022-10-11T06:54:27.116Z,9.40
2022-10-11T06:56:58.787Z,9.40
2022-10-11T06:59:30.452Z,9.50
2022-10-11T07:02:02.147Z,9.40
2022-10-11T07:04:35.180Z,9.50
2022-10-11T07:07:06.868Z,9.50
2022-10-11T07:09:38.542Z,9.60
2022-10-11T07:12:10.282Z,9.60
2022-10-11T07:14:41.962Z,9.60
2022-10-11T07:17:13.625Z,9.60
2022-10-11T07:19:47.008Z,9.60
2022-10-11T07:22:18.674Z,9.60
2022-10-11T07:24:50.305Z,9.70
2022-10-11T07:27:22.497Z,9.70
2022-10-11T07:29:54.135Z,9.70
2022-10-11T07:32:25.812Z,9.80
2022-10-11T07:34:58.853Z,9.90
2022-10-11T07:37:30.566Z,9.90
2022-10-11T07:40:02.254Z,9.90
2022-10-11T07:42:33.921Z,9.90
2022-10-11T07:45:06.212Z,9.90
2022-10-11T07:47:37.872Z,10.00
2022-10-11T07:50:11.376Z,10.10
2022-10-11T07:52:43.163Z,10.20
2022-10-11T07:55:14.992Z,10.30
2022-10-11T07:57:46.646Z,10.40
2022-10-11T08:00:18.693Z,10.70
2022-10-11T08:02:50.430Z,10.60
2022-10-11T08:05:23.598Z,10.60
2022-10-11T08:07:55.276Z,10.70
2022-10-11T08:10:27.063Z,10.80
2022-10-11T08:13:04.056Z,10.80
2022-10-11T08:15:36.168Z,10.80
2022-10-11T08:18:07.957Z,10.90
2022-10-11T08:20:41.041Z,10.90
2022-10-11T08:25:45.707Z,11.10
2022-10-11T08:28:17.792Z,11.10
2022-10-11T08:30:50.450Z,11.20
2022-10-11T08:33:22.647Z,11.40
2022-10-11T08:35:55.662Z,11.40
2022-10-11T08:41:00.247Z,11.50
2022-10-11T08:43:37.419Z,11.40
2022-10-11T08:46:09.638Z,11.40
2022-10-11T08:48:42.098Z,11.40
2022-10-11T08:51:18.127Z,11.50
2022-10-11T08:53:53.400Z,11.50
2022-10-11T08:56:25.372Z,11.60
2022-10-11T08:58:58.689Z,11.70
2022-10-11T09:01:30.428Z,11.80
2022-10-11T09:04:02.134Z,11.90
2022-10-11T09:06:40.319Z,12.00
2022-10-11T09:09:23.940Z,12.10
2022-10-11T09:12:03.250Z,12.10
2022-10-11T09:14:45.529Z,12.30
2022-10-11T09:20:26.006Z,12.60
2022-10-11T09:23:01.436Z,12.60
2022-10-11T09:25:33.908Z,12.70
2022-10-11T09:28:10.685Z,12.90
2022-10-11T09:30:46.882Z,13.20
2022-10-11T09:33:19.489Z,13.50
2022-10-11T09:35:52.000Z,13.60
2022-10-11T09:38:35.068Z,13.70
2022-10-11T09:41:11.576Z,13.70
2022-10-11T09:43:45.939Z,13.30
2022-10-11T09:46:19.741Z,13.00
2022-10-11T09:48:51.578Z,12.90
2022-10-11T09:51:25.194Z,12.90
2022-10-11T09:53:59.359Z,12.80
2022-10-11T09:56:32.749Z,13.00
2022-10-11T09:59:09.741Z,12.80
2022-10-11T10:01:41.589Z,12.60
2022-10-11T10:04:14.154Z,12.40
2022-10-11T10:06:45.959Z,12.00
2022-10-11T10:09:25.674Z,11.80
2022-10-11T10:11:57.409Z,11.80
2022-10-11T10:14:29.356Z,11.80
2022-10-11T10:17:02.686Z,11.80
2022-10-11T10:19:43.770Z,11.90
2022-10-11T10:22:18.173Z,12.00
2022-10-11T10:24:51.377Z,12.10
2022-10-11T10:27:23.611Z,12.10
2022-10-11T10:30:11.876Z,12.00
2022-10-11T10:32:48.751Z,11.80
2022-10-11T10:35:28.935Z,11.70
2022-10-11T10:38:11.898Z,11.70
2022-10-11T10:40:47.085Z,11.70
2022-10-11T10:43:19.537Z,11.70
2022-10-11T10:46:12.201Z,11.80
2022-10-11T10:49:28.416Z,11.80
2022-10-11T10:51:46.505Z,11.80
2022-10-11T10:54:24.328Z,11.90
2022-10-11T10:56:58.329Z,12.00
2022-10-11T10:59:42.906Z,12.00
2022-10-11T11:02:38.861Z,12.10
2022-10-11T11:05:13.573Z,12.10
2022-10-11T11:07:47.016Z,12.10
2022-10-11T11:10:20.273Z,12.20
2022-10-11T11:12:56.601Z,12.30
2022-10-11T11:15:33.149Z,12.30
2022-10-11T11:18:17.495Z,12.30
2022-10-11T11:20:54.996Z,12.30
2022-10-11T11:23:27.446Z,12.30
2022-10-11T11:26:01.353Z,12.30
2022-10-11T11:28:41.981Z,12.30
2022-10-11T11:31:19.378Z,12.40
2022-10-11T11:33:55.357Z,12.40
2022-10-11T11:36:30.737Z,12.40
2022-10-11T11:39:03.202Z,12.50
2022-10-11T11:41:36.415Z,12.60
2022-10-11T11:44:12.068Z,12.70
2022-10-11T11:46:46.733Z,12.80
2022-10-11T11:49:20.600Z,12.80
2022-10-11T11:51:52.264Z,12.90
2022-10-11T11:54:34.396Z,13.00
2022-10-11T11:57:08.681Z,13.00
2022-10-11T11:59:44.600Z,13.00
2022-10-11T12:02:24.958Z,13.10
2022-10-11T12:04:56.840Z,13.10
2022-10-11T12:07:28.574Z,13.10
2022-10-11T12:10:16.161Z,13.30
2022-10-11T12:12:47.784Z,13.30
2022-10-11T12:15:23.234Z,13.50
2022-10-11T12:18:05.815Z,13.50
2022-10-11T12:20:37.547Z,13.50
2022-10-11T12:23:46.128Z,13.50
2022-10-11T12:26:42.589Z,13.50
2022-10-11T12:29:45.592Z,13.50
2022-10-11T12:32:49.053Z,13.40
2022-10-11T12:36:02.790Z,13.50
2022-10-11T12:38:37.681Z,13.50
2022-10-11T12:41:38.199Z,13.50
2022-10-11T12:44:19.392Z,13.50
2022-10-11T12:47:13.306Z,13.40
2022-10-11T12:49:52.011Z,13.60
2022-10-11T12:52:28.552Z,13.70
2022-10-11T12:55:13.070Z,13.70
2022-10-11T12:58:15.611Z,13.80
2022-10-11T13:01:09.229Z,13.70
2022-10-11T13:03:41.613Z,13.70
2022-10-11T13:06:17.429Z,13.60
2022-10-11T13:08:51.347Z,13.60
2022-10-11T13:11:24.948Z,13.50
2022-10-11T13:13:57.703Z,13.50
2022-10-11T13:16:41.703Z,13.50
2022-10-11T13:19:13.741Z,13.50
2022-10-11T13:21:50.752Z,13.40
2022-10-11T13:24:22.660Z,13.50
2022-10-11T13:26:55.261Z,13.50
2022-10-11T13:29:30.523Z,13.60
2022-10-11T13:32:05.906Z,13.60
2022-10-11T13:34:38.873Z,13.70
2022-10-11T13:37:15.128Z,13.80
2022-10-11T13:39:46.837Z,13.90
2022-10-11T13:42:18.828Z,13.90
2022-10-11T13:44:50.481Z,14.00
2022-10-11T13:47:24.648Z,14.00
2022-10-11T13:50:01.868Z,14.00
2022-10-11T13:52:34.944Z,14.00
2022-10-11T13:55:08.713Z,14.00
2022-10-11T13:57:41.738Z,14.00
2022-10-11T14:00:28.192Z,14.10
2022-10-11T14:03:01.905Z,14.10
2022-10-11T14:05:36.612Z,14.10
2022-10-11T14:08:20.266Z,14.00
2022-10-11T14:10:56.720Z,14.00
2022-10-11T14:13:30.822Z,14.00
2022-10-11T14:16:05.306Z,14.00
2022-10-11T14:18:42.993Z,14.00
2022-10-11T14:21:34.161Z,13.90
2022-10-11T14:24:08.051Z,13.90
2022-10-11T14:26:41.489Z,13.80
2022-10-11T14:29:15.014Z,13.90
2022-10-11T14:31:46.673Z,13.80
2022-10-11T14:34:19.170Z,13.70
2022-10-11T14:36:50.867Z,13.70
2022-10-11T14:39:25.612Z,13.70
2022-10-11T14:41:57.291Z,13.70
2022-10-11T14:44:28.928Z,13.60
2022-10-11T14:47:00.586Z,13.60
2022-10-11T14:49:33.090Z,13.60
2022-10-11T14:52:05.549Z,13.60
2022-10-11T14:54:38.540Z,13.60
2022-10-11T14:57:10.857Z,13.60
2022-10-11T14:59:42.500Z,13.50
2022-10-11T15:02:14.135Z,13.50
2022-10-11T15:04:45.756Z,13.60
2022-10-11T15:07:17.407Z,13.60
2022-10-11T15:09:50.383Z,13.50
2022-10-11T15:12:22.034Z,13.50
2022-10-11T15:14:53.677Z,13.50
2022-10-11T15:17:25.320Z,13.50
2022-10-11T15:19:56.965Z,13.50
2022-10-11T15:22:28.612Z,13.50
2022-10-11T15:25:01.565Z,13.50
2022-10-11T15:27:33.196Z,13.40
2022-10-11T15:30:07.082Z,13.40
2022-10-11T15:32:38.737Z,13.40
2022-10-11T15:35:10.380Z,13.40
2022-10-11T15:37:42.046Z,13.40
2022-10-11T15:40:19.650Z,13.30
2022-10-11T15:42:51.515Z,13.30
2022-10-11T15:45:23.230Z,13.30
2022-10-11T15:47:54.886Z,13.20
2022-10-11T15:50:27.920Z,13.30
2022-10-11T15:53:00.071Z,13.20
2022-10-11T15:55:34.249Z,13.20
2022-10-11T15:58:05.900Z,13.20
2022-10-11T16:00:37.562Z,13.10
2022-10-11T16:03:10.556Z,13.20
2022-10-11T16:05:42.427Z,13.10
2022-10-11T16:08:14.228Z,13.10
2022-10-11T16:10:47.370Z,13.00
2022-10-11T16:13:19.053Z,13.00
2022-10-11T16:15:50.719Z,13.00
2022-10-11T16:18:22.585Z,12.90
2022-10-11T16:20:54.251Z,12.90
2022-10-11T16:23:25.918Z,12.80
2022-10-11T16:25:59.559Z,12.70
2022-10-11T16:28:31.397Z,12.70
2022-10-11T16:31:06.662Z,12.70
2022-10-11T16:33:38.329Z,12.60
2022-10-11T16:36:10.109Z,12.60
2022-10-11T16:38:41.779Z,12.60
2022-10-11T16:41:14.793Z,12.50
2022-10-11T16:43:49.803Z,12.50
2022-10-11T16:46:21.589Z,12.40
2022-10-11T16:48:53.963Z,12.30
2022-10-11T16:51:25.746Z,12.30
2022-10-11T16:53:57.473Z,12.20
2022-10-11T16:56:30.503Z,12.10
2022-10-11T17:01:34.476Z,12.10
2022-10-11T17:04:06.125Z,12.90
2022-10-11T17:06:37.908Z,11.90
2022-10-11T17:09:09.593Z,12.30
2022-10-11T17:19:18.916Z,11.60
2022-10-11T17:21:50.615Z,11.50
2022-10-11T17:26:58.606Z,11.40
2022-10-11T17:32:02.407Z,11.30
2022-10-11T17:34:34.093Z,11.20
2022-10-11T17:37:05.768Z,11.10
2022-10-11T17:39:37.646Z,11.10
2022-10-11T17:42:10.657Z,11.30
2022-10-11T17:44:42.276Z,11.10
2022-10-11T17:47:13.956Z,11.00
2022-10-11T17:49:45.592Z,11.00
2022-10-11T17:52:17.295Z,10.90
2022-10-11T17:54:48.922Z,10.90
2022-10-11T17:57:21.939Z,10.80
2022-10-11T17:59:53.639Z,10.80
2022-10-11T18:02:25.400Z,11.00
2022-10-11T18:04:57.046Z,10.70
2022-10-11T18:07:28.760Z,10.80
2022-10-11T18:10:00.403Z,10.60
2022-10-11T18:12:33.615Z,10.50
2022-10-11T18:15:06.118Z,10.50
2022-10-11T18:17:37.794Z,10.50
2022-10-11T18:20:10.323Z,10.40
2022-10-11T18:22:41.999Z,10.40
2022-10-11T18:25:13.700Z,10.30
2022-10-11T18:27:46.726Z,10.30
2022-10-11T18:30:18.368Z,10.30
2022-10-11T18:32:50.044Z,10.20
2022-10-11T18:35:21.707Z,10.20
2022-10-11T18:37:55.481Z,10.10
2022-10-11T18:40:30.396Z,10.10
2022-10-11T18:43:03.439Z,10.00
2022-10-11T18:45:35.084Z,9.90
2022-10-11T18:48:06.781Z,9.90
2022-10-11T18:50:38.441Z,9.80
2022-10-11T18:53:10.098Z,9.80
2022-10-11T18:55:41.825Z,9.90
2022-10-11T18:58:14.801Z,9.80
2022-10-11T19:00:46.578Z,9.80
2022-10-11T19:03:18.330Z,9.80
2022-10-11T19:05:50.034Z,9.70
2022-10-11T19:08:21.718Z,9.60
2022-10-11T19:10:53.414Z,9.60
2022-10-11T19:13:26.385Z,9.50
2022-10-11T19:16:03.757Z,9.30
2022-10-11T19:18:38.277Z,9.40
2022-10-11T19:21:12.642Z,9.40
2022-10-11T19:23:45.515Z,9.30
2022-10-11T19:26:18.430Z,9.30
2022-10-11T19:28:55.698Z,9.20
2022-10-11T19:31:27.517Z,9.20
2022-10-11T19:33:59.188Z,9.20
2022-10-11T19:36:36.283Z,9.20
2022-10-11T19:39:08.618Z,9.20
2022-10-11T19:41:40.306Z,9.30
2022-10-11T19:44:13.472Z,9.20
2022-10-11T19:46:51.522Z,9.30
2022-10-11T19:49:24.242Z,9.30
2022-10-11T19:51:55.923Z,9.10
2022-10-11T19:56:59.627Z,9.00
2022-10-11T19:59:32.620Z,8.90
2022-10-11T20:02:04.356Z,9.00
2022-10-11T20:04:53.038Z,8.90
2022-10-11T20:07:25.097Z,8.90
2022-10-11T20:09:56.720Z,8.90
2022-10-11T20:12:29.537Z,9.30
2022-10-11T20:15:02.743Z,8.90
2022-10-11T20:20:07.638Z,8.80
2022-10-11T20:22:39.286Z,8.60
2022-10-11T20:25:11.033Z,8.70
2022-10-11T20:27:42.984Z,8.70
2022-10-11T20:30:16.082Z,8.70
2022-10-11T20:32:47.754Z,8.60
2022-10-11T20:35:19.398Z,8.60
2022-10-11T20:37:51.071Z,8.60
2022-10-11T20:40:22.723Z,8.60
2022-10-11T20:42:54.402Z,8.60
2022-10-11T20:45:27.397Z,8.50
2022-10-11T20:47:59.055Z,8.50
2022-10-11T20:50:30.703Z,8.50
2022-10-11T20:53:02.332Z,8.40
2022-10-11T20:55:33.975Z,8.40
2022-10-11T20:58:05.635Z,8.40
2022-10-11T21:00:40.130Z,8.30
2022-10-11T21:03:11.819Z,8.30
2022-10-11T21:05:44.032Z,8.30
2022-10-11T21:08:15.688Z,8.30
2022-10-11T21:10:51.070Z,8.30
2022-10-11T21:13:22.787Z,8.20
2022-10-11T21:15:55.806Z,8.20
2022-10-11T21:18:27.468Z,8.20
2022-10-11T21:21:05.011Z,8.20
2022-10-11T21:23:36.661Z,8.20
2022-10-11T21:26:08.984Z,8.20
2022-10-11T21:28:41.094Z,8.20
2022-10-11T21:31:14.998Z,8.20
2022-10-11T21:33:46.930Z,8.20
2022-10-11T21:36:19.466Z,8.20
2022-10-11T21:38:51.198Z,8.10
2022-10-11T21:41:23.647Z,8.10
2022-10-11T21:43:55.310Z,8.10
2022-10-11T21:46:54.050Z,8.10
2022-10-11T21:49:21.279Z,8.10
2022-10-11T21:51:53.128Z,8.00
2022-10-11T21:54:24.862Z,8.00
2022-10-11T21:56:56.602Z,8.00
2022-10-11T21:59:28.226Z,7.90
